sensor_id;sensor_type;location;lat;lon;timestamp;temperature;humidity
54082;DHT22;39986;50.770;0.266;2023-05-24T00:00:23;11.10;99.90
54082;DHT22;39986;50.770;0.266;2023-05-24T00:02:48;11.10;99.90
54082;DHT22;39986;50.770;0.266;2023-05-24T00:05:14;11.10;99.90
54082;DHT22;39986;50.770;0.266;2023-05-24T00:07:41;11.10;99.90
54082;DHT22;39986;50.770;0.266;2023-05-24T00:10:06;11.20;99.90
54082;DHT22;39986;50.770;0.266;2023-05-24T00:12:32;11.10;99.90
54082;DHT22;39986;50.770;0.266;2023-05-24T00:14:58;11.10;99.90
54082;DHT22;39986;50.770;0.266;2023-05-24T00:17:23;11.10;99.90
54082;DHT22;39986;50.770;0.266;2023-05-24T00:19:49;11.00;99.90
54082;DHT22;39986;50.770;0.266;2023-05-24T00:22:15;11.00;99.90
54082;DHT22;39986;50.770;0.266;2023-05-24T00:24:40;11.10;99.90
54082;DHT22;39986;50.770;0.266;2023-05-24T00:27:06;11.00;99.90
54082;DHT22;39986;50.770;0.266;2023-05-24T00:29:31;11.00;99.90
54082;DHT22;39986;50.770;0.266;2023-05-24T00:31:57;11.00;99.90
54082;DHT22;39986;50.770;0.266;2023-05-24T00:34:22;10.90;99.90
54082;DHT22;39986;50.770;0.266;2023-05-24T00:36:48;10.90;99.90
54082;DHT22;39986;50.770;0.266;2023-05-24T00:39:13;10.80;99.90
54082;DHT22;39986;50.770;0.266;2023-05-24T00:41:39;10.80;99.90
54082;DHT22;39986;50.770;0.266;2023-05-24T00:44:05;10.80;99.90
54082;DHT22;39986;50.770;0.266;2023-05-24T00:46:31;10.80;99.90
54082;DHT22;39986;50.770;0.266;2023-05-24T00:48:57;10.80;99.90
54082;DHT22;39986;50.770;0.266;2023-05-24T00:51:23;10.80;99.90
54082;DHT22;39986;50.770;0.266;2023-05-24T00:53:50;10.70;99.90
54082;DHT22;39986;50.770;0.266;2023-05-24T00:56:16;10.80;99.90
54082;DHT22;39986;50.770;0.266;2023-05-24T00:58:42;10.80;99.90
54082;DHT22;39986;50.770;0.266;2023-05-24T01:01:08;10.80;99.90
54082;DHT22;39986;50.770;0.266;2023-05-24T01:03:33;10.70;99.90
54082;DHT22;39986;50.770;0.266;2023-05-24T01:06:00;10.70;99.90
54082;DHT22;39986;50.770;0.266;2023-05-24T01:11:19;10.70;99.90
54082;DHT22;39986;50.770;0.266;2023-05-24T01:16:24;10.70;99.90
54082;DHT22;39986;50.770;0.266;2023-05-24T01:18:53;10.70;99.90
54082;DHT22;39986;50.770;0.266;2023-05-24T01:24:13;10.60;99.90
54082;DHT22;39986;50.770;0.266;2023-05-24T01:29:27;10.60;99.90
54082;DHT22;39986;50.770;0.266;2023-05-24T01:31:53;10.50;99.90
54082;DHT22;39986;50.770;0.266;2023-05-24T01:34:19;10.60;99.90
54082;DHT22;39986;50.770;0.266;2023-05-24T01:36:44;10.50;99.90
54082;DHT22;39986;50.770;0.266;2023-05-24T01:39:10;10.60;99.90
54082;DHT22;39986;50.770;0.266;2023-05-24T01:41:40;10.80;99.90
54082;DHT22;39986;50.770;0.266;2023-05-24T01:49:02;10.80;99.90
54082;DHT22;39986;50.770;0.266;2023-05-24T01:51:32;10.60;99.90
54082;DHT22;39986;50.770;0.266;2023-05-24T01:53:58;10.70;99.90
54082;DHT22;39986;50.770;0.266;2023-05-24T01:56:25;10.70;99.90
54082;DHT22;39986;50.770;0.266;2023-05-24T01:58:51;10.60;99.90
54082;DHT22;39986;50.770;0.266;2023-05-24T02:01:18;10.70;99.90
54082;DHT22;39986;50.770;0.266;2023-05-24T02:03:44;10.80;99.90
54082;DHT22;39986;50.770;0.266;2023-05-24T02:06:09;10.70;99.90
54082;DHT22;39986;50.770;0.266;2023-05-24T02:08:35;10.70;99.90
54082;DHT22;39986;50.770;0.266;2023-05-24T02:11:00;10.70;99.90
54082;DHT22;39986;50.770;0.266;2023-05-24T02:13:26;10.70;99.90
54082;DHT22;39986;50.770;0.266;2023-05-24T02:15:52;10.70;99.90
54082;DHT22;39986;50.770;0.266;2023-05-24T02:18:19;10.80;99.90
54082;DHT22;39986;50.770;0.266;2023-05-24T02:20:44;10.90;99.90
54082;DHT22;39986;50.770;0.266;2023-05-24T02:23:10;10.80;99.90
54082;DHT22;39986;50.770;0.266;2023-05-24T02:25:35;10.70;99.90
54082;DHT22;39986;50.770;0.266;2023-05-24T02:28:01;10.70;99.90
54082;DHT22;39986;50.770;0.266;2023-05-24T02:30:26;10.70;99.90
54082;DHT22;39986;50.770;0.266;2023-05-24T02:32:52;10.70;99.90
54082;DHT22;39986;50.770;0.266;2023-05-24T02:35:18;10.70;99.90
54082;DHT22;39986;50.770;0.266;2023-05-24T02:37:43;10.80;99.90
54082;DHT22;39986;50.770;0.266;2023-05-24T02:40:09;10.80;99.90
54082;DHT22;39986;50.770;0.266;2023-05-24T02:42:35;10.80;99.90
54082;DHT22;39986;50.770;0.266;2023-05-24T02:45:00;10.80;99.90
54082;DHT22;39986;50.770;0.266;2023-05-24T02:47:26;10.90;99.90
54082;DHT22;39986;50.770;0.266;2023-05-24T02:49:52;10.90;99.90
54082;DHT22;39986;50.770;0.266;2023-05-24T02:52:17;10.90;99.90
54082;DHT22;39986;50.770;0.266;2023-05-24T02:54:46;10.90;99.90
54082;DHT22;39986;50.770;0.266;2023-05-24T02:57:11;10.80;99.90
54082;DHT22;39986;50.770;0.266;2023-05-24T02:59:37;10.90;99.90
54082;DHT22;39986;50.770;0.266;2023-05-24T03:02:02;10.90;99.90
54082;DHT22;39986;50.770;0.266;2023-05-24T03:04:28;11.00;99.90
54082;DHT22;39986;50.770;0.266;2023-05-24T03:06:53;11.00;99.90
54082;DHT22;39986;50.770;0.266;2023-05-24T03:09:19;11.00;99.90
54082;DHT22;39986;50.770;0.266;2023-05-24T03:11:44;11.10;99.90
54082;DHT22;39986;50.770;0.266;2023-05-24T03:14:10;11.40;99.90
54082;DHT22;39986;50.770;0.266;2023-05-24T03:16:36;11.20;99.90
54082;DHT22;39986;50.770;0.266;2023-05-24T03:19:02;11.30;99.90
54082;DHT22;39986;50.770;0.266;2023-05-24T03:21:27;11.20;99.90
54082;DHT22;39986;50.770;0.266;2023-05-24T03:23:53;11.30;99.90
54082;DHT22;39986;50.770;0.266;2023-05-24T03:26:18;11.30;99.90
54082;DHT22;39986;50.770;0.266;2023-05-24T03:28:45;11.30;99.90
54082;DHT22;39986;50.770;0.266;2023-05-24T03:31:11;11.50;99.90
54082;DHT22;39986;50.770;0.266;2023-05-24T03:33:37;11.60;99.90
54082;DHT22;39986;50.770;0.266;2023-05-24T03:36:03;11.60;99.90
54082;DHT22;39986;50.770;0.266;2023-05-24T03:38:29;11.70;99.90
54082;DHT22;39986;50.770;0.266;2023-05-24T03:40:55;11.70;99.90
54082;DHT22;39986;50.770;0.266;2023-05-24T03:43:21;11.60;99.90
54082;DHT22;39986;50.770;0.266;2023-05-24T03:45:46;11.60;99.90
54082;DHT22;39986;50.770;0.266;2023-05-24T03:48:12;11.50;99.90
54082;DHT22;39986;50.770;0.266;2023-05-24T03:50:37;11.50;99.90
54082;DHT22;39986;50.770;0.266;2023-05-24T03:53:03;11.40;99.90
54082;DHT22;39986;50.770;0.266;2023-05-24T03:55:29;11.30;99.90
54082;DHT22;39986;50.770;0.266;2023-05-24T03:57:54;11.20;99.90
54082;DHT22;39986;50.770;0.266;2023-05-24T04:00:20;11.30;99.90
54082;DHT22;39986;50.770;0.266;2023-05-24T04:02:46;11.20;99.90
54082;DHT22;39986;50.770;0.266;2023-05-24T04:05:12;11.20;99.90
54082;DHT22;39986;50.770;0.266;2023-05-24T04:07:38;11.30;99.90
54082;DHT22;39986;50.770;0.266;2023-05-24T04:10:04;11.30;99.90
54082;DHT22;39986;50.770;0.266;2023-05-24T04:12:30;11.30;99.90
54082;DHT22;39986;50.770;0.266;2023-05-24T04:14:57;11.30;99.90
54082;DHT22;39986;50.770;0.266;2023-05-24T04:17:22;11.30;99.90
54082;DHT22;39986;50.770;0.266;2023-05-24T04:19:51;11.30;99.90
54082;DHT22;39986;50.770;0.266;2023-05-24T04:22:17;11.20;99.90
54082;DHT22;39986;50.770;0.266;2023-05-24T04:24:46;11.10;99.90
54082;DHT22;39986;50.770;0.266;2023-05-24T04:27:11;11.10;99.90
54082;DHT22;39986;50.770;0.266;2023-05-24T04:29:40;11.10;99.90
54082;DHT22;39986;50.770;0.266;2023-05-24T04:32:06;11.30;99.90
54082;DHT22;39986;50.770;0.266;2023-05-24T04:34:34;11.10;99.90
54082;DHT22;39986;50.770;0.266;2023-05-24T04:37:00;11.20;99.90
54082;DHT22;39986;50.770;0.266;2023-05-24T04:39:26;11.30;99.90
54082;DHT22;39986;50.770;0.266;2023-05-24T04:41:52;11.30;99.90
54082;DHT22;39986;50.770;0.266;2023-05-24T04:44:19;11.40;99.90
54082;DHT22;39986;50.770;0.266;2023-05-24T04:46:44;11.40;99.90
54082;DHT22;39986;50.770;0.266;2023-05-24T04:49:10;11.40;99.90
54082;DHT22;39986;50.770;0.266;2023-05-24T04:51:35;11.50;99.90
54082;DHT22;39986;50.770;0.266;2023-05-24T04:54:03;11.70;99.90
54082;DHT22;39986;50.770;0.266;2023-05-24T04:56:36;11.80;99.90
54082;DHT22;39986;50.770;0.266;2023-05-24T04:59:03;11.90;99.90
54082;DHT22;39986;50.770;0.266;2023-05-24T05:01:30;12.00;99.90
54082;DHT22;39986;50.770;0.266;2023-05-24T05:03:55;12.20;99.90
54082;DHT22;39986;50.770;0.266;2023-05-24T05:06:21;12.30;99.90
54082;DHT22;39986;50.770;0.266;2023-05-24T05:08:46;12.50;99.90
54082;DHT22;39986;50.770;0.266;2023-05-24T05:11:13;12.60;99.90
54082;DHT22;39986;50.770;0.266;2023-05-24T05:13:38;12.90;99.90
54082;DHT22;39986;50.770;0.266;2023-05-24T05:16:04;13.40;99.90
54082;DHT22;39986;50.770;0.266;2023-05-24T05:18:30;13.60;99.90
54082;DHT22;39986;50.770;0.266;2023-05-24T05:20:55;14.30;99.90
54082;DHT22;39986;50.770;0.266;2023-05-24T05:23:21;15.20;99.90
54082;DHT22;39986;50.770;0.266;2023-05-24T05:25:47;16.10;99.90
54082;DHT22;39986;50.770;0.266;2023-05-24T05:28:12;16.70;99.90
54082;DHT22;39986;50.770;0.266;2023-05-24T05:30:38;16.90;99.90
54082;DHT22;39986;50.770;0.266;2023-05-24T05:33:03;16.60;99.90
54082;DHT22;39986;50.770;0.266;2023-05-24T05:35:30;16.30;99.90
54082;DHT22;39986;50.770;0.266;2023-05-24T05:37:56;15.80;99.90
54082;DHT22;39986;50.770;0.266;2023-05-24T05:40:22;15.50;99.90
54082;DHT22;39986;50.770;0.266;2023-05-24T05:42:47;15.30;99.90
54082;DHT22;39986;50.770;0.266;2023-05-24T05:45:14;15.10;99.90
54082;DHT22;39986;50.770;0.266;2023-05-24T05:47:40;15.00;99.90
54082;DHT22;39986;50.770;0.266;2023-05-24T05:50:06;15.00;99.90
54082;DHT22;39986;50.770;0.266;2023-05-24T05:52:31;14.90;99.90
54082;DHT22;39986;50.770;0.266;2023-05-24T05:54:57;14.90;99.90
54082;DHT22;39986;50.770;0.266;2023-05-24T05:57:24;14.80;99.90
54082;DHT22;39986;50.770;0.266;2023-05-24T05:59:50;14.80;99.90
54082;DHT22;39986;50.770;0.266;2023-05-24T06:02:15;14.80;99.90
54082;DHT22;39986;50.770;0.266;2023-05-24T06:04:43;14.80;99.90
54082;DHT22;39986;50.770;0.266;2023-05-24T06:07:08;14.80;99.90
54082;DHT22;39986;50.770;0.266;2023-05-24T06:09:34;14.90;99.90
54082;DHT22;39986;50.770;0.266;2023-05-24T06:11:59;15.00;99.90
54082;DHT22;39986;50.770;0.266;2023-05-24T06:14:25;15.10;99.90
54082;DHT22;39986;50.770;0.266;2023-05-24T06:16:51;15.10;99.90
54082;DHT22;39986;50.770;0.266;2023-05-24T06:19:18;15.20;99.90
54082;DHT22;39986;50.770;0.266;2023-05-24T06:21:46;15.20;99.90
54082;DHT22;39986;50.770;0.266;2023-05-24T06:24:16;15.20;99.90
54082;DHT22;39986;50.770;0.266;2023-05-24T06:26:46;15.30;99.90
54082;DHT22;39986;50.770;0.266;2023-05-24T06:29:11;15.30;99.90
54082;DHT22;39986;50.770;0.266;2023-05-24T06:31:38;15.40;99.90
54082;DHT22;39986;50.770;0.266;2023-05-24T06:34:04;15.40;99.90
54082;DHT22;39986;50.770;0.266;2023-05-24T06:36:29;15.50;99.90
54082;DHT22;39986;50.770;0.266;2023-05-24T06:38:58;15.50;99.90
54082;DHT22;39986;50.770;0.266;2023-05-24T06:41:23;15.60;99.90
54082;DHT22;39986;50.770;0.266;2023-05-24T06:43:49;15.70;99.90
54082;DHT22;39986;50.770;0.266;2023-05-24T06:46:15;15.80;99.90
54082;DHT22;39986;50.770;0.266;2023-05-24T06:48:40;16.00;99.90
54082;DHT22;39986;50.770;0.266;2023-05-24T06:51:06;16.10;99.90
54082;DHT22;39986;50.770;0.266;2023-05-24T06:53:31;16.20;99.90
54082;DHT22;39986;50.770;0.266;2023-05-24T06:55:57;16.40;99.90
54082;DHT22;39986;50.770;0.266;2023-05-24T06:58:22;16.40;99.90
54082;DHT22;39986;50.770;0.266;2023-05-24T07:00:48;16.60;99.90
54082;DHT22;39986;50.770;0.266;2023-05-24T07:03:14;16.70;99.90
54082;DHT22;39986;50.770;0.266;2023-05-24T07:05:40;16.80;99.90
54082;DHT22;39986;50.770;0.266;2023-05-24T07:08:05;16.80;99.90
54082;DHT22;39986;50.770;0.266;2023-05-24T07:10:31;16.90;99.90
54082;DHT22;39986;50.770;0.266;2023-05-24T07:12:56;16.90;99.90
54082;DHT22;39986;50.770;0.266;2023-05-24T07:15:22;17.00;99.90
54082;DHT22;39986;50.770;0.266;2023-05-24T07:17:47;17.10;99.90
54082;DHT22;39986;50.770;0.266;2023-05-24T07:20:13;17.10;99.90
54082;DHT22;39986;50.770;0.266;2023-05-24T07:22:39;17.10;99.90
54082;DHT22;39986;50.770;0.266;2023-05-24T07:25:05;17.20;99.90
54082;DHT22;39986;50.770;0.266;2023-05-24T07:27:30;17.30;99.90
54082;DHT22;39986;50.770;0.266;2023-05-24T07:29:56;17.50;99.90
54082;DHT22;39986;50.770;0.266;2023-05-24T07:32:23;17.70;99.90
54082;DHT22;39986;50.770;0.266;2023-05-24T07:34:48;17.70;99.90
54082;DHT22;39986;50.770;0.266;2023-05-24T07:37:14;17.90;99.90
54082;DHT22;39986;50.770;0.266;2023-05-24T07:39:40;17.90;99.90
54082;DHT22;39986;50.770;0.266;2023-05-24T07:42:06;18.00;99.90
54082;DHT22;39986;50.770;0.266;2023-05-24T07:44:32;18.00;99.90
54082;DHT22;39986;50.770;0.266;2023-05-24T07:46:57;18.00;99.90
54082;DHT22;39986;50.770;0.266;2023-05-24T07:49:23;18.10;99.90
54082;DHT22;39986;50.770;0.266;2023-05-24T07:51:48;18.30;99.90
54082;DHT22;39986;50.770;0.266;2023-05-24T07:54:14;18.30;99.90
54082;DHT22;39986;50.770;0.266;2023-05-24T07:56:40;18.40;99.90
54082;DHT22;39986;50.770;0.266;2023-05-24T07:59:06;18.40;99.90
54082;DHT22;39986;50.770;0.266;2023-05-24T08:01:35;18.40;99.90
54082;DHT22;39986;50.770;0.266;2023-05-24T08:04:01;18.30;99.90
54082;DHT22;39986;50.770;0.266;2023-05-24T08:06:30;18.40;99.90
54082;DHT22;39986;50.770;0.266;2023-05-24T08:08:57;18.50;99.90
54082;DHT22;39986;50.770;0.266;2023-05-24T08:11:22;18.40;99.90
54082;DHT22;39986;50.770;0.266;2023-05-24T08:13:48;18.50;99.90
54082;DHT22;39986;50.770;0.266;2023-05-24T08:16:13;18.60;99.90
54082;DHT22;39986;50.770;0.266;2023-05-24T08:18:39;18.70;99.90
54082;DHT22;39986;50.770;0.266;2023-05-24T08:21:05;18.70;99.90
54082;DHT22;39986;50.770;0.266;2023-05-24T08:23:30;18.80;99.90
54082;DHT22;39986;50.770;0.266;2023-05-24T08:25:56;18.90;99.90
54082;DHT22;39986;50.770;0.266;2023-05-24T08:28:22;18.90;99.90
54082;DHT22;39986;50.770;0.266;2023-05-24T08:30:48;19.00;99.90
54082;DHT22;39986;50.770;0.266;2023-05-24T08:33:13;19.10;99.90
54082;DHT22;39986;50.770;0.266;2023-05-24T08:35:39;19.10;99.90
54082;DHT22;39986;50.770;0.266;2023-05-24T08:38:05;19.20;99.90
54082;DHT22;39986;50.770;0.266;2023-05-24T08:40:31;19.30;99.90
54082;DHT22;39986;50.770;0.266;2023-05-24T08:42:58;19.50;99.90
54082;DHT22;39986;50.770;0.266;2023-05-24T08:45:24;19.50;99.90
54082;DHT22;39986;50.770;0.266;2023-05-24T08:47:50;19.50;99.90
54082;DHT22;39986;50.770;0.266;2023-05-24T08:50:16;19.70;99.90
54082;DHT22;39986;50.770;0.266;2023-05-24T08:52:42;19.70;99.90
54082;DHT22;39986;50.770;0.266;2023-05-24T08:55:08;19.70;99.90
54082;DHT22;39986;50.770;0.266;2023-05-24T08:57:35;19.70;99.90
54082;DHT22;39986;50.770;0.266;2023-05-24T09:00:07;19.80;99.90
54082;DHT22;39986;50.770;0.266;2023-05-24T09:02:37;20.00;99.90
54082;DHT22;39986;50.770;0.266;2023-05-24T09:05:03;20.20;99.90
54082;DHT22;39986;50.770;0.266;2023-05-24T09:07:30;20.40;99.90
54082;DHT22;39986;50.770;0.266;2023-05-24T09:09:57;20.50;99.90
54082;DHT22;39986;50.770;0.266;2023-05-24T09:12:22;20.50;99.90
54082;DHT22;39986;50.770;0.266;2023-05-24T09:14:49;20.50;99.90
54082;DHT22;39986;50.770;0.266;2023-05-24T09:17:15;20.60;99.90
54082;DHT22;39986;50.770;0.266;2023-05-24T09:19:44;20.70;99.90
54082;DHT22;39986;50.770;0.266;2023-05-24T09:22:13;20.80;99.90
54082;DHT22;39986;50.770;0.266;2023-05-24T09:24:39;20.90;99.90
54082;DHT22;39986;50.770;0.266;2023-05-24T09:27:05;21.00;99.90
54082;DHT22;39986;50.770;0.266;2023-05-24T09:29:34;21.10;99.90
54082;DHT22;39986;50.770;0.266;2023-05-24T09:31:59;21.10;99.90
54082;DHT22;39986;50.770;0.266;2023-05-24T09:34:25;21.20;99.90
54082;DHT22;39986;50.770;0.266;2023-05-24T09:36:51;21.40;99.90
54082;DHT22;39986;50.770;0.266;2023-05-24T09:39:17;21.50;99.90
54082;DHT22;39986;50.770;0.266;2023-05-24T09:41:45;21.60;99.90
54082;DHT22;39986;50.770;0.266;2023-05-24T09:44:23;21.70;99.90
54082;DHT22;39986;50.770;0.266;2023-05-24T09:46:48;21.80;99.90
54082;DHT22;39986;50.770;0.266;2023-05-24T09:49:14;21.90;99.90
54082;DHT22;39986;50.770;0.266;2023-05-24T09:51:40;22.00;99.90
54082;DHT22;39986;50.770;0.266;2023-05-24T09:54:06;22.10;99.90
54082;DHT22;39986;50.770;0.266;2023-05-24T09:56:33;22.20;99.90
54082;DHT22;39986;50.770;0.266;2023-05-24T09:59:06;22.10;99.90
54082;DHT22;39986;50.770;0.266;2023-05-24T10:01:35;22.20;99.90
54082;DHT22;39986;50.770;0.266;2023-05-24T10:04:00;22.20;99.90
54082;DHT22;39986;50.770;0.266;2023-05-24T10:06:29;22.00;99.90
54082;DHT22;39986;50.770;0.266;2023-05-24T10:08:57;21.80;99.90
54082;DHT22;39986;50.770;0.266;2023-05-24T10:11:23;21.30;99.90
54082;DHT22;39986;50.770;0.266;2023-05-24T10:13:48;21.10;99.90
54082;DHT22;39986;50.770;0.266;2023-05-24T10:16:14;20.70;99.90
54082;DHT22;39986;50.770;0.266;2023-05-24T10:18:40;20.20;99.90
54082;DHT22;39986;50.770;0.266;2023-05-24T10:21:06;19.90;99.90
54082;DHT22;39986;50.770;0.266;2023-05-24T10:23:38;19.80;99.90
54082;DHT22;39986;50.770;0.266;2023-05-24T10:26:04;20.00;99.90
54082;DHT22;39986;50.770;0.266;2023-05-24T10:28:31;19.90;99.90
54082;DHT22;39986;50.770;0.266;2023-05-24T10:31:00;19.90;99.90
54082;DHT22;39986;50.770;0.266;2023-05-24T10:33:26;20.00;99.90
54082;DHT22;39986;50.770;0.266;2023-05-24T10:35:52;20.10;99.90
54082;DHT22;39986;50.770;0.266;2023-05-24T10:38:21;20.00;99.90
54082;DHT22;39986;50.770;0.266;2023-05-24T10:40:47;19.80;99.90
54082;DHT22;39986;50.770;0.266;2023-05-24T10:43:13;19.90;99.90
54082;DHT22;39986;50.770;0.266;2023-05-24T10:45:39;20.10;99.90
54082;DHT22;39986;50.770;0.266;2023-05-24T10:50:34;20.60;99.90
54082;DHT22;39986;50.770;0.266;2023-05-24T10:58:42;21.20;99.90
54082;DHT22;39986;50.770;0.266;2023-05-24T11:01:27;22.20;99.90
54082;DHT22;39986;50.770;0.266;2023-05-24T11:04:09;23.40;99.90
54082;DHT22;39986;50.770;0.266;2023-05-24T11:09:14;27.60;99.90
54082;DHT22;39986;50.770;0.266;2023-05-24T11:11:42;28.30;99.90
54082;DHT22;39986;50.770;0.266;2023-05-24T11:14:09;29.20;99.90
54082;DHT22;39986;50.770;0.266;2023-05-24T11:16:35;29.00;99.90
54082;DHT22;39986;50.770;0.266;2023-05-24T11:19:35;29.50;99.30
54082;DHT22;39986;50.770;0.266;2023-05-24T11:21:53;30.70;97.10
54082;DHT22;39986;50.770;0.266;2023-05-24T11:24:23;31.80;94.90
54082;DHT22;39986;50.770;0.266;2023-05-24T11:26:49;32.70;91.60
54082;DHT22;39986;50.770;0.266;2023-05-24T11:29:16;33.70;90.00
54082;DHT22;39986;50.770;0.266;2023-05-24T11:32:01;34.20;86.90
54082;DHT22;39986;50.770;0.266;2023-05-24T11:34:30;33.80;86.70
54082;DHT22;39986;50.770;0.266;2023-05-24T11:36:57;34.10;84.80
54082;DHT22;39986;50.770;0.266;2023-05-24T11:39:23;34.70;81.90
54082;DHT22;39986;50.770;0.266;2023-05-24T11:41:50;34.70;79.90
54082;DHT22;39986;50.770;0.266;2023-05-24T11:44:17;35.00;76.50
54082;DHT22;39986;50.770;0.266;2023-05-24T11:46:45;34.80;78.60
54082;DHT22;39986;50.770;0.266;2023-05-24T11:49:14;34.90;76.60
54082;DHT22;39986;50.770;0.266;2023-05-24T11:51:40;34.90;76.50
54082;DHT22;39986;50.770;0.266;2023-05-24T11:54:06;34.50;73.70
54082;DHT22;39986;50.770;0.266;2023-05-24T11:56:31;34.30;75.60
54082;DHT22;39986;50.770;0.266;2023-05-24T11:59:07;34.80;73.70
54082;DHT22;39986;50.770;0.266;2023-05-24T12:01:33;33.10;75.30
54082;DHT22;39986;50.770;0.266;2023-05-24T12:03:59;31.90;78.90
54082;DHT22;39986;50.770;0.266;2023-05-24T12:06:32;31.40;83.50
54082;DHT22;39986;50.770;0.266;2023-05-24T12:08:58;31.10;83.40
54082;DHT22;39986;50.770;0.266;2023-05-24T12:11:23;31.10;84.20
54082;DHT22;39986;50.770;0.266;2023-05-24T12:13:49;30.30;86.90
54082;DHT22;39986;50.770;0.266;2023-05-24T12:16:15;29.50;91.30
54082;DHT22;39986;50.770;0.266;2023-05-24T12:18:40;29.80;90.10
54082;DHT22;39986;50.770;0.266;2023-05-24T12:21:09;29.70;90.90
54082;DHT22;39986;50.770;0.266;2023-05-24T12:23:36;30.90;90.10
54082;DHT22;39986;50.770;0.266;2023-05-24T12:26:02;32.10;86.80
54082;DHT22;39986;50.770;0.266;2023-05-24T12:28:34;33.30;83.60
54082;DHT22;39986;50.770;0.266;2023-05-24T12:31:03;32.20;84.00
54082;DHT22;39986;50.770;0.266;2023-05-24T12:33:29;31.20;85.60
54082;DHT22;39986;50.770;0.266;2023-05-24T12:35:55;31.50;87.00
54082;DHT22;39986;50.770;0.266;2023-05-24T12:38:22;32.90;85.10
54082;DHT22;39986;50.770;0.266;2023-05-24T12:40:50;34.40;79.90
54082;DHT22;39986;50.770;0.266;2023-05-24T12:43:17;34.50;77.10
54082;DHT22;39986;50.770;0.266;2023-05-24T12:45:43;33.90;77.30
54082;DHT22;39986;50.770;0.266;2023-05-24T12:48:08;33.80;77.60
54082;DHT22;39986;50.770;0.266;2023-05-24T12:50:34;34.00;76.50
54082;DHT22;39986;50.770;0.266;2023-05-24T12:53:00;35.00;74.90
54082;DHT22;39986;50.770;0.266;2023-05-24T12:55:25;35.30;73.40
54082;DHT22;39986;50.770;0.266;2023-05-24T12:57:52;34.60;72.50
54082;DHT22;39986;50.770;0.266;2023-05-24T13:00:25;33.10;76.10
54082;DHT22;39986;50.770;0.266;2023-05-24T13:02:54;33.40;76.20
54082;DHT22;39986;50.770;0.266;2023-05-24T13:05:21;33.80;75.10
54082;DHT22;39986;50.770;0.266;2023-05-24T13:07:48;33.60;73.50
54082;DHT22;39986;50.770;0.266;2023-05-24T13:10:14;34.10;72.50
54082;DHT22;39986;50.770;0.266;2023-05-24T13:12:40;33.40;74.40
54082;DHT22;39986;50.770;0.266;2023-05-24T13:15:06;32.80;76.10
54082;DHT22;39986;50.770;0.266;2023-05-24T13:17:31;32.80;75.00
54082;DHT22;39986;50.770;0.266;2023-05-24T13:19:57;33.50;74.50
54082;DHT22;39986;50.770;0.266;2023-05-24T13:22:23;34.70;73.50
54082;DHT22;39986;50.770;0.266;2023-05-24T13:24:49;34.70;71.60
54082;DHT22;39986;50.770;0.266;2023-05-24T13:27:15;35.30;72.20
54082;DHT22;39986;50.770;0.266;2023-05-24T13:29:40;35.50;70.90
54082;DHT22;39986;50.770;0.266;2023-05-24T13:32:06;36.30;67.40
54082;DHT22;39986;50.770;0.266;2023-05-24T13:34:31;36.10;67.80
54082;DHT22;39986;50.770;0.266;2023-05-24T13:36:57;35.30;69.00
54082;DHT22;39986;50.770;0.266;2023-05-24T13:39:24;35.30;68.90
54082;DHT22;39986;50.770;0.266;2023-05-24T13:41:50;36.10;67.40
54082;DHT22;39986;50.770;0.266;2023-05-24T13:44:16;36.10;66.00
54082;DHT22;39986;50.770;0.266;2023-05-24T13:46:42;36.10;64.80
54082;DHT22;39986;50.770;0.266;2023-05-24T13:49:08;36.20;65.00
54082;DHT22;39986;50.770;0.266;2023-05-24T13:51:34;35.20;65.20
54082;DHT22;39986;50.770;0.266;2023-05-24T13:54:00;34.80;66.90
54082;DHT22;39986;50.770;0.266;2023-05-24T13:56:26;35.10;66.20
54082;DHT22;39986;50.770;0.266;2023-05-24T13:58:57;35.30;66.50
54082;DHT22;39986;50.770;0.266;2023-05-24T14:01:23;36.10;65.50
54082;DHT22;39986;50.770;0.266;2023-05-24T14:03:48;36.70;64.80
54082;DHT22;39986;50.770;0.266;2023-05-24T14:06:14;37.30;62.50
54082;DHT22;39986;50.770;0.266;2023-05-24T14:08:40;36.80;61.10
54082;DHT22;39986;50.770;0.266;2023-05-24T14:11:05;37.00;60.30
54082;DHT22;39986;50.770;0.266;2023-05-24T14:13:31;37.50;61.10
54082;DHT22;39986;50.770;0.266;2023-05-24T14:15:57;37.70;60.10
54082;DHT22;39986;50.770;0.266;2023-05-24T14:18:22;37.40;59.30
54082;DHT22;39986;50.770;0.266;2023-05-24T14:20:48;37.10;59.40
54082;DHT22;39986;50.770;0.266;2023-05-24T14:23:13;37.20;59.10
54082;DHT22;39986;50.770;0.266;2023-05-24T14:25:39;36.70;58.20
54082;DHT22;39986;50.770;0.266;2023-05-24T14:28:06;35.90;59.30
54082;DHT22;39986;50.770;0.266;2023-05-24T14:30:32;35.30;61.80
54082;DHT22;39986;50.770;0.266;2023-05-24T14:32:58;35.70;61.30
54082;DHT22;39986;50.770;0.266;2023-05-24T14:35:25;35.40;61.50
54082;DHT22;39986;50.770;0.266;2023-05-24T14:37:50;35.10;60.80
54082;DHT22;39986;50.770;0.266;2023-05-24T14:40:18;36.10;60.10
54082;DHT22;39986;50.770;0.266;2023-05-24T14:42:43;37.00;58.50
54082;DHT22;39986;50.770;0.266;2023-05-24T14:45:09;36.90;58.80
54082;DHT22;39986;50.770;0.266;2023-05-24T14:47:34;35.90;58.50
54082;DHT22;39986;50.770;0.266;2023-05-24T14:50:00;34.30;62.40
54082;DHT22;39986;50.770;0.266;2023-05-24T14:52:26;32.00;64.70
54082;DHT22;39986;50.770;0.266;2023-05-24T14:54:51;29.80;70.20
54082;DHT22;39986;50.770;0.266;2023-05-24T14:57:17;27.90;77.80
54082;DHT22;39986;50.770;0.266;2023-05-24T14:59:42;26.30;89.40
54082;DHT22;39986;50.770;0.266;2023-05-24T15:02:08;25.50;94.10
54082;DHT22;39986;50.770;0.266;2023-05-24T15:04:33;24.90;96.20
54082;DHT22;39986;50.770;0.266;2023-05-24T15:06:59;24.70;98.20
54082;DHT22;39986;50.770;0.266;2023-05-24T15:09:24;24.60;98.10
54082;DHT22;39986;50.770;0.266;2023-05-24T15:11:50;24.40;98.70
54082;DHT22;39986;50.770;0.266;2023-05-24T15:14:16;23.90;99.90
54082;DHT22;39986;50.770;0.266;2023-05-24T15:16:41;23.60;99.90
54082;DHT22;39986;50.770;0.266;2023-05-24T15:19:07;23.20;99.90
54082;DHT22;39986;50.770;0.266;2023-05-24T15:21:34;22.80;99.90
54082;DHT22;39986;50.770;0.266;2023-05-24T15:24:01;22.60;99.90
54082;DHT22;39986;50.770;0.266;2023-05-24T15:26:27;22.40;99.90
54082;DHT22;39986;50.770;0.266;2023-05-24T15:28:52;22.20;99.90
54082;DHT22;39986;50.770;0.266;2023-05-24T15:31:18;22.00;99.90
54082;DHT22;39986;50.770;0.266;2023-05-24T15:33:43;21.90;99.90
54082;DHT22;39986;50.770;0.266;2023-05-24T15:36:09;21.90;99.90
54082;DHT22;39986;50.770;0.266;2023-05-24T15:38:38;21.90;99.90
54082;DHT22;39986;50.770;0.266;2023-05-24T15:41:04;21.80;99.90
54082;DHT22;39986;50.770;0.266;2023-05-24T15:43:29;21.70;99.90
54082;DHT22;39986;50.770;0.266;2023-05-24T15:45:55;21.70;99.90
54082;DHT22;39986;50.770;0.266;2023-05-24T15:48:21;21.80;99.90
54082;DHT22;39986;50.770;0.266;2023-05-24T15:50:46;22.00;99.90